Time;durP1;ratioP1;P1;durP2;ratioP2;P2;SDS_P1;SDS_P2;PMS_P1;PMS_P2;Temp;Humidity;BMP_temperature;BMP_pressure;BME280_temperature;BME280_humidity;BME280_pressure;Samples;Min_cycle;Max_cycle;Signal;HPM_P1;HPM_P2
2024/04/15 00:02:36;;;;;;;4.60;4.00;;;18.70;32.60;;;;;;11152779;26;20250;-71
2024/04/15 00:07:41;;;;;;;4.33;3.70;;;18.70;31.70;;;;;;11147685;26;20266;-71
2024/04/15 00:12:48;;;;;;;3.47;3.10;;;18.50;31.50;;;;;;11152711;26;20255;-71
2024/04/15 00:17:54;;;;;;;4.30;3.90;;;18.40;32.50;;;;;;11151715;26;20262;-71
2024/04/15 00:23:01;;;;;;;3.57;3.27;;;18.30;32.00;;;;;;11155563;26;20369;-71
2024/04/15 00:28:08;;;;;;;4.40;4.00;;;18.20;32.50;;;;;;11156616;26;20606;-71
2024/04/15 00:33:14;;;;;;;3.67;3.47;;;18.10;33.20;;;;;;11164754;26;20309;-71
2024/04/15 00:38:20;;;;;;;4.00;3.60;;;17.90;32.40;;;;;;11150397;26;20845;-71
2024/04/15 00:43:30;;;;;;;4.23;3.83;;;17.70;32.70;;;;;;11155022;26;20268;-71
2024/04/15 00:48:36;;;;;;;4.13;3.60;;;17.60;34.40;;;;;;11164049;26;20735;-71
2024/04/15 00:53:41;;;;;;;3.80;3.03;;;17.50;33.10;;;;;;11153158;26;20968;-71
2024/04/15 00:58:49;;;;;;;3.87;3.53;;;17.50;33.40;;;;;;11152179;26;21241;-72
2024/04/15 01:03:56;;;;;;;3.13;2.93;;;17.40;34.20;;;;;;11146145;26;20266;-71
2024/04/15 01:09:02;;;;;;;3.87;3.53;;;17.40;33.20;;;;;;11154524;26;20263;-71
2024/04/15 01:14:10;;;;;;;3.80;3.60;;;17.40;33.30;;;;;;11146120;26;20255;-71
2024/04/15 01:19:15;;;;;;;3.87;3.57;;;17.40;34.20;;;;;;11147778;26;20337;-71
2024/04/15 01:24:23;;;;;;;4.00;3.70;;;17.30;33.30;;;;;;11146487;26;20597;-71
2024/04/15 01:29:28;;;;;;;4.03;3.63;;;17.30;34.10;;;;;;11157765;26;21010;-71
2024/04/15 01:34:33;;;;;;;3.93;3.53;;;17.20;33.50;;;;;;11153316;26;20628;-71
2024/04/15 01:39:40;;;;;;;4.00;3.70;;;17.10;33.90;;;;;;11153669;26;20292;-71
2024/04/15 01:44:45;;;;;;;4.30;4.00;;;17.00;34.20;;;;;;11150401;26;20325;-71
2024/04/15 01:49:50;;;;;;;4.03;3.67;;;16.90;33.70;;;;;;11150951;26;20254;-71
2024/04/15 01:54:58;;;;;;;4.70;4.10;;;16.70;33.60;;;;;;11158418;26;20737;-71
2024/04/15 02:00:03;;;;;;;4.43;4.07;;;16.60;35.60;;;;;;11150620;26;20259;-71
2024/04/15 02:05:09;;;;;;;4.30;3.90;;;16.50;34.70;;;;;;11145222;26;20263;-71
2024/04/15 02:10:16;;;;;;;3.70;3.40;;;16.40;34.10;;;;;;11152203;26;20889;-72
2024/04/15 02:15:22;;;;;;;4.13;3.80;;;16.30;35.40;;;;;;11155521;26;20398;-72
2024/04/15 02:20:27;;;;;;;3.90;3.60;;;16.30;34.60;;;;;;11156997;26;20251;-71
2024/04/15 02:25:34;;;;;;;3.80;3.50;;;16.20;34.60;;;;;;11150116;26;20297;-72
2024/04/15 02:30:39;;;;;;;3.90;3.60;;;16.20;35.50;;;;;;11154944;26;20305;-72
2024/04/15 02:35:44;;;;;;;4.30;3.90;;;16.30;34.90;;;;;;11142217;26;20272;-72
2024/04/15 02:40:54;;;;;;;4.83;4.43;;;16.30;35.70;;;;;;11143671;26;20260;-71
2024/04/15 02:46:00;;;;;;;4.60;4.20;;;16.40;37.30;;;;;;11164016;26;20297;-71
2024/04/15 02:51:06;;;;;;;4.93;4.50;;;16.40;36.40;;;;;;11148351;26;20262;-71
2024/04/15 02:56:13;;;;;;;5.70;4.90;;;16.50;36.40;;;;;;11156703;26;20262;-71
2024/04/15 03:01:18;;;;;;;5.30;4.70;;;16.60;38.00;;;;;;11158317;26;20307;-71
2024/04/15 03:06:24;;;;;;;5.00;4.60;;;16.70;36.80;;;;;;11154759;26;20274;-71
2024/04/15 03:11:31;;;;;;;4.93;4.53;;;16.80;36.90;;;;;;11149066;26;20267;-72
2024/04/15 03:16:37;;;;;;;5.27;4.73;;;16.90;37.70;;;;;;11146824;26;20301;-72
2024/04/15 03:21:42;;;;;;;5.37;4.97;;;17.00;37.00;;;;;;11149397;26;20296;-72
2024/04/15 03:26:50;;;;;;;5.53;5.00;;;17.00;37.00;;;;;;11144209;26;20322;-72
2024/04/15 03:31:55;;;;;;;5.87;4.80;;;17.10;38.20;;;;;;11160480;26;20259;-72
2024/04/15 03:37:00;;;;;;;5.17;4.77;;;17.10;37.10;;;;;;11151782;26;20703;-72
2024/04/15 03:42:08;;;;;;;4.37;4.03;;;17.20;37.10;;;;;;11152841;26;20895;-72
2024/04/15 03:47:13;;;;;;;4.90;4.50;;;17.20;38.80;;;;;;11152250;26;20576;-72
2024/04/15 03:52:18;;;;;;;5.33;4.30;;;17.30;37.00;;;;;;11157135;26;20308;-72
2024/04/15 03:57:26;;;;;;;4.60;4.20;;;17.40;36.90;;;;;;11148446;26;21240;-72
2024/04/15 04:02:30;;;;;;;5.37;4.87;;;17.40;37.90;;;;;;11148688;26;20610;-72
2024/04/15 04:07:35;;;;;;;5.67;4.63;;;17.50;37.00;;;;;;11156729;26;20399;-72
2024/04/15 04:12:43;;;;;;;4.87;4.47;;;17.40;37.00;;;;;;11147657;26;20605;-72
2024/04/15 04:17:48;;;;;;;5.03;4.63;;;17.40;38.10;;;;;;11156639;26;20917;-72
2024/04/15 04:22:54;;;;;;;5.10;4.43;;;17.30;37.20;;;;;;11151285;26;20391;-72
2024/04/15 04:28:01;;;;;;;4.63;4.23;;;17.20;37.40;;;;;;11153582;26;20616;-72
2024/04/15 04:33:07;;;;;;;5.27;4.87;;;17.10;38.50;;;;;;11149266;26;20380;-72
2024/04/15 04:38:12;;;;;;;6.97;6.27;;;17.10;38.00;;;;;;11164732;26;20274;-72
2024/04/15 04:43:19;;;;;;;5.60;5.10;;;17.10;37.90;;;;;;11156936;26;20293;-72
2024/04/15 04:48:24;;;;;;;4.87;4.43;;;17.10;39.10;;;;;;11152469;26;20301;-73
2024/04/15 04:53:29;;;;;;;4.93;4.57;;;17.00;38.20;;;;;;11167580;26;20263;-72
2024/04/15 04:58:37;;;;;;;4.87;4.47;;;17.00;38.40;;;;;;11151080;26;20299;-72
2024/04/15 05:03:44;;;;;;;5.00;4.60;;;17.00;39.60;;;;;;11155576;26;20267;-72
2024/04/15 05:08:50;;;;;;;6.33;5.33;;;17.00;39.00;;;;;;11151414;26;20263;-73
2024/04/15 05:13:57;;;;;;;5.60;4.93;;;17.10;38.90;;;;;;11151555;26;20781;-73
2024/04/15 05:19:02;;;;;;;5.97;4.90;;;17.10;39.80;;;;;;11148641;26;20255;-72
2024/04/15 05:24:08;;;;;;;4.50;4.00;;;17.20;38.80;;;;;;11157639;26;20297;-73
2024/04/15 05:29:16;;;;;;;4.70;4.30;;;17.20;38.90;;;;;;11149568;26;20607;-72
2024/04/15 05:34:21;;;;;;;5.20;4.07;;;17.20;39.90;;;;;;11147275;26;20259;-72
2024/04/15 05:39:26;;;;;;;3.97;3.67;;;17.30;39.10;;;;;;11151307;26;20827;-72
2024/04/15 05:44:34;;;;;;;4.63;4.20;;;17.30;39.10;;;;;;11154475;26;20336;-72
2024/04/15 05:49:40;;;;;;;6.83;4.43;;;17.30;40.50;;;;;;11159028;26;20796;-72
2024/04/15 05:54:44;;;;;;;5.40;4.90;;;17.30;39.60;;;;;;11151519;26;20263;-72
2024/04/15 05:59:52;;;;;;;5.67;4.83;;;17.30;39.60;;;;;;11153702;26;20344;-72
2024/04/15 06:04:59;;;;;;;4.90;4.50;;;17.30;40.90;;;;;;11147926;26;20305;-72
2024/04/15 06:10:04;;;;;;;4.57;4.10;;;17.40;39.80;;;;;;11146323;26;20285;-72
2024/04/15 06:15:12;;;;;;;4.30;3.90;;;17.50;39.90;;;;;;11151786;26;20306;-72
2024/04/15 06:20:17;;;;;;;4.50;4.00;;;17.60;40.40;;;;;;11148836;26;20263;-72
2024/04/15 06:25:26;;;;;;;4.37;4.03;;;17.70;39.40;;;;;;11160389;26;20278;-72
2024/04/15 06:30:34;;;;;;;3.97;3.57;;;17.70;39.30;;;;;;11152848;26;20343;-72
2024/04/15 06:35:38;;;;;;;4.10;3.30;;;17.70;39.60;;;;;;11158357;26;20305;-72
2024/04/15 06:40:43;;;;;;;2.60;2.40;;;17.70;38.70;;;;;;11159785;26;20305;-72
2024/04/15 06:45:51;;;;;;;2.40;2.20;;;17.70;38.10;;;;;;11157094;26;20262;-72
2024/04/15 06:50:56;;;;;;;2.00;1.90;;;17.60;38.40;;;;;;11165753;26;20417;-72
2024/04/15 06:56:01;;;;;;;2.07;1.87;;;17.60;38.00;;;;;;11160534;26;20301;-72
2024/04/15 07:01:09;;;;;;;3.37;2.47;;;17.60;38.10;;;;;;11155595;26;20263;-72
2024/04/15 07:06:14;;;;;;;2.60;2.40;;;17.60;39.00;;;;;;11157158;26;20289;-72
2024/04/15 07:11:19;;;;;;;2.77;2.57;;;17.60;38.30;;;;;;11157422;26;20798;-72
2024/04/15 07:16:26;;;;;;;3.50;3.00;;;17.60;38.70;;;;;;11165623;26;20274;-72
2024/04/15 07:21:31;;;;;;;3.00;2.80;;;17.70;39.70;;;;;;11158638;26;20781;-72
2024/04/15 07:26:37;;;;;;;3.27;2.97;;;17.70;39.10;;;;;;11149372;26;20305;-72
2024/04/15 07:31:44;;;;;;;3.30;3.00;;;17.70;39.60;;;;;;11157819;26;20795;-72
2024/04/15 07:36:49;;;;;;;3.47;2.80;;;17.60;40.40;;;;;;11145257;26;20299;-72
2024/04/15 07:41:54;;;;;;;3.57;2.80;;;17.70;39.70;;;;;;11164335;26;20309;-72
2024/04/15 07:47:02;;;;;;;3.20;2.90;;;17.80;39.50;;;;;;11152946;26;21135;-72
2024/04/15 07:52:07;;;;;;;3.20;3.00;;;17.80;40.40;;;;;;11093181;26;21041;-72
2024/04/15 07:57:12;;;;;;;5.33;3.20;;;17.90;39.50;;;;;;11124814;26;20267;-72
2024/04/15 08:02:20;;;;;;;3.50;3.20;;;17.90;39.50;;;;;;11156044;26;20604;-72
2024/04/15 08:07:26;;;;;;;3.97;2.70;;;18.00;40.00;;;;;;11157769;26;20275;-72
2024/04/15 08:12:31;;;;;;;3.60;3.30;;;17.90;39.40;;;;;;11152068;26;21170;-72
2024/04/15 08:17:38;;;;;;;3.27;2.87;;;17.90;39.50;;;;;;11152739;26;20305;-72
2024/04/15 08:22:44;;;;;;;3.10;2.90;;;17.80;40.30;;;;;;11152397;26;20275;-72
2024/04/15 08:27:49;;;;;;;3.33;3.03;;;17.70;39.80;;;;;;11160434;26;21117;-72
2024/04/15 08:32:57;;;;;;;3.27;3.07;;;17.80;40.00;;;;;;11155156;26;20764;-72
2024/04/15 08:38:02;;;;;;;3.87;3.07;;;17.80;40.90;;;;;;11153990;26;20301;-72
2024/04/15 08:43:07;;;;;;;3.70;3.20;;;17.80;40.00;;;;;;11152769;26;20255;-72
2024/04/15 08:48:17;;;;;;;4.17;3.73;;;17.80;40.10;;;;;;11151374;26;21243;-72
2024/04/15 08:53:23;;;;;;;3.97;3.40;;;17.80;41.40;;;;;;11149397;26;20258;-73
2024/04/15 08:58:28;;;;;;;5.93;3.37;;;17.90;40.40;;;;;;11152254;26;20262;-73
2024/04/15 09:03:35;;;;;;;4.00;3.60;;;18.00;40.30;;;;;;11126144;26;20300;-73
2024/04/15 09:08:41;;;;;;;3.43;3.10;;;18.00;41.20;;;;;;11157071;26;20356;-72
2024/04/15 09:13:46;;;;;;;4.07;3.37;;;17.90;40.10;;;;;;11150889;26;20742;-72
2024/04/15 09:18:54;;;;;;;4.33;3.93;;;18.00;40.20;;;;;;11156834;26;20255;-72
2024/04/15 09:23:59;;;;;;;4.20;3.90;;;18.00;40.90;;;;;;11155470;26;20294;-72
2024/04/15 09:29:05;;;;;;;4.00;3.63;;;17.90;40.40;;;;;;11150292;26;20405;-72
2024/04/15 09:34:13;;;;;;;32.50;7.73;;;17.90;41.00;;;;;;11147438;26;20282;-72
2024/04/15 09:39:18;;;;;;;4.93;3.97;;;17.90;41.70;;;;;;11142661;26;20318;-72
2024/04/15 09:44:24;;;;;;;4.30;3.87;;;17.90;40.40;;;;;;11155405;26;21192;-72
2024/04/15 09:49:32;;;;;;;4.00;3.70;;;18.00;40.40;;;;;;11134446;26;20601;-72
2024/04/15 09:54:38;;;;;;;4.53;3.60;;;18.00;41.40;;;;;;11149106;26;20253;-72
2024/04/15 09:59:47;;;;;;;3.37;2.90;;;18.10;40.40;;;;;;11142654;26;21142;-72
2024/04/15 10:04:59;;;;;;;3.50;2.60;;;18.10;40.40;;;;;;11146665;26;21592;-72
2024/04/15 10:10:05;;;;;;;4.30;2.80;;;18.10;40.20;;;;;;11151033;26;20370;-72
2024/04/15 10:15:12;;;;;;;2.97;1.90;;;18.10;39.30;;;;;;11142175;26;20258;-72
2024/04/15 10:20:20;;;;;;;1.90;1.50;;;18.00;38.70;;;;;;11144601;26;20738;-72
2024/04/15 10:25:25;;;;;;;2.43;1.90;;;17.90;38.50;;;;;;11149002;26;21317;-73
2024/04/15 10:30:36;;;;;;;1.90;1.80;;;17.80;38.50;;;;;;11150839;26;20675;-72
2024/04/15 10:35:44;;;;;;;3.37;2.03;;;17.70;39.00;;;;;;11160651;26;20312;-72
2024/04/15 10:40:49;;;;;;;1.70;1.60;;;17.70;38.90;;;;;;11155047;26;20247;-72
2024/04/15 10:45:55;;;;;;;2.20;1.90;;;17.60;38.80;;;;;;11161733;26;20302;-73
2024/04/15 10:51:02;;;;;;;1.90;1.60;;;17.60;39.00;;;;;;11156144;26;20310;-72
2024/04/15 10:56:11;;;;;;;2.00;1.90;;;17.60;39.30;;;;;;11139435;26;20258;-72
2024/04/15 11:01:17;;;;;;;2.43;2.20;;;17.70;38.90;;;;;;11134641;26;21121;-72
2024/04/15 11:06:24;;;;;;;2.20;1.90;;;17.60;39.20;;;;;;11134078;26;20260;-72
2024/04/15 11:11:31;;;;;;;2.67;2.10;;;17.70;39.80;;;;;;11133025;26;21113;-73
2024/04/15 11:16:36;;;;;;;2.83;1.60;;;17.60;39.10;;;;;;11132707;26;20740;-72
2024/04/15 11:21:44;;;;;;;2.17;1.20;;;17.60;39.20;;;;;;11141025;26;20362;-72
2024/04/15 11:26:51;;;;;;;2.63;2.40;;;17.50;38.90;;;;;;11141874;26;20848;-72
2024/04/15 11:31:56;;;;;;;2.37;1.53;;;17.50;38.80;;;;;;11134678;26;20309;-72
2024/04/15 11:37:05;;;;;;;1.77;1.40;;;17.50;39.00;;;;;;11137389;26;20369;-73
2024/04/15 11:42:12;;;;;;;1.80;1.60;;;17.40;38.80;;;;;;11133538;26;20260;-72
2024/04/15 11:47:18;;;;;;;1.57;1.30;;;17.40;39.20;;;;;;11147770;26;20317;-72
2024/04/15 11:52:28;;;;;;;1.60;1.50;;;17.30;39.10;;;;;;11132530;26;20267;-72
2024/04/15 11:57:33;;;;;;;2.27;1.50;;;17.30;40.00;;;;;;11136274;26;20251;-72
2024/04/15 12:02:40;;;;;;;2.80;2.10;;;17.40;39.70;;;;;;11142271;26;20257;-72
2024/04/15 12:07:48;;;;;;;1.63;1.53;;;17.40;39.90;;;;;;11138704;26;20254;-72
2024/04/15 12:12:53;;;;;;;1.93;1.63;;;17.50;38.90;;;;;;11134736;26;20301;-72
2024/04/15 12:17:58;;;;;;;3.83;1.40;;;17.50;38.80;;;;;;11133049;26;20648;-72
2024/04/15 12:23:06;;;;;;;1.93;1.47;;;17.50;38.90;;;;;;11139827;26;20247;-72
2024/04/15 12:28:11;;;;;;;1.60;1.50;;;17.50;39.00;;;;;;11115054;26;20311;-72
2024/04/15 12:33:16;;;;;;;1.60;1.50;;;17.60;39.30;;;;;;11131995;26;20776;-72
2024/04/15 12:38:23;;;;;;;2.27;2.07;;;17.70;39.50;;;;;;11141734;26;20751;-72
2024/04/15 12:43:28;;;;;;;2.70;2.00;;;17.80;39.70;;;;;;11143002;26;20298;-72
2024/04/15 12:48:33;;;;;;;1.93;1.73;;;17.80;39.90;;;;;;11140860;26;20609;-72
2024/04/15 12:53:41;;;;;;;2.57;1.50;;;17.90;39.60;;;;;;11102649;26;20305;-72
2024/04/15 12:58:46;;;;;;;2.00;1.50;;;17.90;39.40;;;;;;11123330;26;20278;-72
2024/04/15 13:03:51;;;;;;;2.43;1.63;;;17.90;39.30;;;;;;11137435;26;20290;-72
2024/04/15 13:08:59;;;;;;;2.40;1.87;;;17.90;39.30;;;;;;11143700;26;20314;-76
2024/04/15 13:14:04;;;;;;;2.63;1.80;;;17.90;39.80;;;;;;11143342;26;20263;-72
2024/04/15 13:19:09;;;;;;;5.03;1.83;;;17.90;39.50;;;;;;11128818;26;20264;-73
2024/04/15 13:24:16;;;;;;;2.47;1.77;;;18.00;39.30;;;;;;11115436;26;20256;-72
2024/04/15 13:29:21;;;;;;;3.23;2.00;;;17.90;39.00;;;;;;11148609;26;20300;-73
2024/04/15 13:34:27;;;;;;;2.50;2.00;;;17.90;38.90;;;;;;11139134;26;20668;-72
2024/04/15 13:39:35;;;;;;;2.53;1.80;;;17.80;38.70;;;;;;11140323;26;20388;-73
2024/04/15 13:44:43;;;;;;;2.50;2.30;;;17.70;39.10;;;;;;11122762;26;20267;-72
2024/04/15 13:49:48;;;;;;;4.43;2.33;;;17.70;39.40;;;;;;11140899;26;20264;-72
2024/04/15 13:54:57;;;;;;;2.77;2.40;;;17.60;40.00;;;;;;11147149;26;20297;-72
2024/04/15 14:00:02;;;;;;;2.97;2.67;;;17.50;39.90;;;;;;11142502;26;20317;-72
2024/04/15 14:05:09;;;;;;;2.93;2.57;;;17.50;39.60;;;;;;11140829;26;20305;-72
2024/04/15 14:10:18;;;;;;;2.97;2.67;;;17.40;40.10;;;;;;11140230;26;20358;-72
2024/04/15 14:15:24;;;;;;;2.97;2.20;;;17.50;41.30;;;;;;11152739;26;20881;-72
2024/04/15 14:20:29;;;;;;;3.40;3.10;;;17.50;40.90;;;;;;11133682;26;20680;-72
2024/04/15 14:25:37;;;;;;;4.10;3.17;;;17.70;41.00;;;;;;11138861;26;20270;-72
2024/04/15 14:30:45;;;;;;;4.27;2.70;;;17.90;41.20;;;;;;11143166;26;20799;-72
2024/04/15 14:35:50;;;;;;;3.00;2.53;;;17.90;40.60;;;;;;11135595;26;20263;-73
2024/04/15 14:40:58;;;;;;;4.47;2.40;;;18.00;40.80;;;;;;11142663;26;20310;-72
2024/04/15 14:46:03;;;;;;;3.70;2.50;;;18.10;41.00;;;;;;11132161;26;23343;-72
2024/04/15 14:51:08;;;;;;;2.67;2.47;;;18.20;40.80;;;;;;11132359;26;20837;-72
2024/04/15 14:56:16;;;;;;;4.20;2.40;;;18.20;40.60;;;;;;11131681;26;20259;-72
2024/04/15 15:01:21;;;;;;;2.40;2.20;;;18.30;41.40;;;;;;11134894;26;20261;-72
2024/04/15 15:06:26;;;;;;;2.60;2.30;;;18.40;40.60;;;;;;11135405;26;20351;-72
2024/04/15 15:11:34;;;;;;;2.97;2.50;;;18.50;40.70;;;;;;11147777;26;20299;-73
2024/04/15 15:16:39;;;;;;;3.60;2.60;;;18.50;41.20;;;;;;11134630;26;20255;-72
2024/04/15 15:21:44;;;;;;;2.83;2.40;;;18.50;41.10;;;;;;11150380;26;20845;-72
2024/04/15 15:26:52;;;;;;;3.37;2.53;;;18.60;42.00;;;;;;11144233;26;20255;-72
2024/04/15 15:31:57;;;;;;;3.10;2.90;;;18.60;41.40;;;;;;11140250;26;20258;-72
2024/04/15 15:37:02;;;;;;;4.67;3.20;;;18.70;40.70;;;;;;11147090;26;20278;-72
2024/04/15 15:42:10;;;;;;;3.53;2.07;;;18.70;40.80;;;;;;11127504;26;20259;-72
2024/04/15 15:47:15;;;;;;;2.70;2.13;;;18.70;40.30;;;;;;11139615;26;20325;-72
2024/04/15 15:52:22;;;;;;;2.00;1.80;;;18.50;40.50;;;;;;11144919;26;21672;-72
2024/04/15 15:57:30;;;;;;;2.83;1.67;;;18.40;40.40;;;;;;11135748;26;20271;-72
2024/04/15 16:02:35;;;;;;;1.97;1.50;;;18.20;41.10;;;;;;11138762;26;20251;-72
2024/04/15 16:07:54;;;;;;;2.40;1.40;;;18.00;40.90;;;;;;11140677;26;20263;-72
2024/04/15 16:13:01;;;;;;;1.30;1.20;;;18.00;40.90;;;;;;11140305;26;20313;-72
2024/04/15 16:18:08;;;;;;;2.80;1.30;;;17.90;41.10;;;;;;11148167;26;21695;-72
2024/04/15 16:23:13;;;;;;;1.87;1.20;;;17.80;40.70;;;;;;11142750;26;20263;-72
2024/04/15 16:28:20;;;;;;;2.00;1.47;;;17.70;41.00;;;;;;11143328;26;20349;-72
2024/04/15 16:33:25;;;;;;;2.13;1.30;;;17.70;41.80;;;;;;11142629;26;20262;-72
2024/04/15 16:38:34;;;;;;;4.20;1.70;;;17.70;41.10;;;;;;11137960;26;20335;-72
2024/04/15 16:43:42;;;;;;;2.27;1.60;;;17.60;41.30;;;;;;11130604;26;20396;-72
2024/04/15 16:48:47;;;;;;;1.63;1.43;;;17.50;42.70;;;;;;11141781;26;20255;-72
2024/04/15 16:53:52;;;;;;;2.10;1.60;;;17.70;42.30;;;;;;11142490;26;20260;-72
2024/04/15 16:59:00;;;;;;;2.07;1.40;;;17.80;41.90;;;;;;11138741;26;20251;-72
2024/04/15 17:04:05;;;;;;;2.43;1.70;;;17.80;42.20;;;;;;11140264;26;20327;-72
2024/04/15 17:09:10;;;;;;;2.17;1.83;;;17.70;41.60;;;;;;11137813;26;20264;-72
2024/04/15 17:14:18;;;;;;;3.50;2.00;;;17.60;41.70;;;;;;11132132;26;20300;-72
2024/04/15 17:19:23;;;;;;;2.77;2.10;;;17.60;42.30;;;;;;11136957;26;20825;-72
2024/04/15 17:24:29;;;;;;;4.73;3.00;;;17.50;41.80;;;;;;11129315;26;20741;-72
2024/04/15 17:29:37;;;;;;;2.33;2.00;;;17.40;41.80;;;;;;11132652;26;20258;-72
2024/04/15 17:34:42;;;;;;;2.77;2.00;;;17.40;42.70;;;;;;11140940;26;21131;-71
2024/04/15 17:39:48;;;;;;;4.47;2.27;;;17.40;42.00;;;;;;11139312;26;20265;-72
2024/04/15 17:44:56;;;;;;;2.27;2.00;;;17.40;42.20;;;;;;11140274;26;20295;-72
2024/04/15 17:50:01;;;;;;;3.87;2.30;;;17.40;42.80;;;;;;11130146;26;20263;-72
2024/04/15 17:55:09;;;;;;;3.80;2.20;;;17.40;42.20;;;;;;11134134;26;20301;-72
2024/04/15 18:00:19;;;;;;;4.17;2.37;;;17.30;42.30;;;;;;11135470;26;20301;-72
2024/04/15 18:05:24;;;;;;;3.57;2.43;;;17.20;43.30;;;;;;11132413;26;21071;-72
2024/04/15 18:10:29;;;;;;;5.90;2.23;;;17.30;42.40;;;;;;11138142;26;20294;-72
2024/04/15 18:15:37;;;;;;;3.43;2.60;;;17.30;42.40;;;;;;11138904;26;20314;-72
2024/04/15 18:20:42;;;;;;;5.43;3.20;;;17.30;43.10;;;;;;11130898;26;20254;-72
2024/04/15 18:25:48;;;;;;;4.43;2.97;;;17.30;42.60;;;;;;11135199;26;20275;-72
2024/04/15 18:30:56;;;;;;;3.80;2.57;;;17.30;42.50;;;;;;11127966;26;20297;-72
2024/04/15 18:36:01;;;;;;;4.63;2.90;;;17.20;43.00;;;;;;11137572;26;20277;-72
2024/04/15 18:41:06;;;;;;;3.20;2.87;;;17.20;42.60;;;;;;11122979;26;20263;-72
2024/04/15 18:46:14;;;;;;;3.27;2.63;;;17.20;42.60;;;;;;11121015;26;20309;-72
2024/04/15 18:51:19;;;;;;;2.73;2.53;;;17.10;43.30;;;;;;11131230;26;20263;-72
2024/04/15 18:56:25;;;;;;;3.30;2.63;;;17.20;43.00;;;;;;11123196;26;20306;-72
2024/04/15 19:01:32;;;;;;;2.93;2.70;;;17.30;42.90;;;;;;11133245;26;20254;-72
2024/04/15 19:06:37;;;;;;;5.53;2.50;;;17.40;43.30;;;;;;11116532;26;20296;-72
2024/04/15 19:11:42;;;;;;;3.07;2.30;;;17.50;42.50;;;;;;11129912;26;20309;-72
2024/04/15 19:16:50;;;;;;;3.30;2.70;;;17.60;42.10;;;;;;11130058;26;20260;-71
2024/04/15 19:21:56;;;;;;;3.40;2.70;;;17.70;42.50;;;;;;11130545;26;20815;-72
2024/04/15 19:27:01;;;;;;;3.20;2.50;;;17.60;41.70;;;;;;11132935;26;20341;-72
2024/04/15 19:32:11;;;;;;;3.10;2.20;;;17.50;41.30;;;;;;11138879;26;20302;-72
2024/04/15 19:37:17;;;;;;;5.57;1.80;;;17.50;41.20;;;;;;11133821;26;20305;-72
2024/04/15 19:42:22;;;;;;;3.77;2.10;;;17.40;40.90;;;;;;11143760;26;20479;-72
2024/04/15 19:47:29;;;;;;;4.70;2.40;;;17.40;40.70;;;;;;11141957;26;20310;-72
2024/04/15 19:52:34;;;;;;;2.63;1.90;;;17.30;40.70;;;;;;11139814;26;20330;-72
2024/04/15 19:57:43;;;;;;;2.27;1.40;;;17.30;40.50;;;;;;11160734;26;20261;-72
2024/04/15 20:02:51;;;;;;;1.63;1.30;;;17.20;39.50;;;;;;11146805;26;20301;-72
2024/04/15 20:07:56;;;;;;;2.27;1.30;;;17.10;38.60;;;;;;11161656;26;20315;-72
2024/04/15 20:13:13;;;;;;;2.53;1.50;;;16.90;38.80;;;;;;11150171;26;20605;-72
2024/04/15 20:18:33;;;;;;;1.93;1.33;;;16.90;39.20;;;;;;11150837;26;20305;-71
2024/04/15 20:23:39;;;;;;;1.87;1.10;;;16.80;38.60;;;;;;11150444;26;20370;-72
2024/04/15 20:28:44;;;;;;;2.17;1.23;;;16.60;38.10;;;;;;11147164;26;20267;-72
2024/04/15 20:33:51;;;;;;;1.70;1.03;;;16.50;38.20;;;;;;11149213;26;20258;-71
2024/04/15 20:38:56;;;;;;;1.63;1.13;;;16.30;37.60;;;;;;11154440;26;20264;-72
2024/04/15 20:44:01;;;;;;;4.63;1.20;;;16.20;38.20;;;;;;11144097;26;20266;-72
2024/04/15 20:49:09;;;;;;;4.23;1.40;;;15.90;39.10;;;;;;11135739;26;20256;-71
2024/04/15 20:54:14;;;;;;;3.50;1.30;;;15.90;38.20;;;;;;11151336;26;20274;-72
2024/04/15 20:59:19;;;;;;;1.57;1.07;;;15.70;38.50;;;;;;11133487;26;20299;-72
2024/04/15 21:04:27;;;;;;;2.70;0.90;;;15.60;38.30;;;;;;11149523;26;20290;-71
2024/04/15 21:09:32;;;;;;;3.10;1.20;;;15.60;37.70;;;;;;11142813;26;20360;-72
2024/04/15 21:14:38;;;;;;;3.00;0.97;;;15.50;37.00;;;;;;11151642;26;20296;-71
2024/04/15 21:19:45;;;;;;;7.13;0.90;;;15.30;36.30;;;;;;11151346;26;20321;-72
2024/04/15 21:24:51;;;;;;;1.47;0.60;;;15.00;35.30;;;;;;11152703;26;20267;-72
2024/04/15 21:29:56;;;;;;;1.23;0.70;;;14.60;35.10;;;;;;11151515;26;20300;-71
2024/04/15 21:35:05;;;;;;;1.27;0.40;;;14.20;34.80;;;;;;11149486;26;20259;-71
2024/04/15 21:40:10;;;;;;;0.40;0.40;;;13.80;34.60;;;;;;11147291;26;20907;-71
2024/04/15 21:45:16;;;;;;;1.57;0.50;;;13.40;35.10;;;;;;11148422;26;20262;-71
2024/04/15 21:50:23;;;;;;;0.73;0.33;;;13.10;35.40;;;;;;11142946;26;20294;-71
2024/04/15 21:55:29;;;;;;;2.20;0.50;;;12.90;35.40;;;;;;11146944;26;20254;-72
2024/04/15 22:00:34;;;;;;;1.50;0.50;;;12.80;35.60;;;;;;11151997;26;20250;-71
2024/04/15 22:05:41;;;;;;;0.60;0.50;;;12.60;36.00;;;;;;11143466;26;20257;-71
2024/04/15 22:10:46;;;;;;;3.07;0.50;;;12.50;35.50;;;;;;11152012;26;20389;-72
2024/04/15 22:15:52;;;;;;;0.40;0.40;;;12.40;35.50;;;;;;11134270;26;20379;-71
2024/04/15 22:21:00;;;;;;;0.40;0.40;;;12.30;35.30;;;;;;11140479;26;20262;-72
2024/04/15 22:26:05;;;;;;;1.43;0.57;;;12.10;33.80;;;;;;11149137;26;20369;-71
2024/04/15 22:31:10;;;;;;;1.90;0.50;;;11.90;35.20;;;;;;11148477;26;20742;-71
2024/04/15 22:36:18;;;;;;;1.27;0.43;;;11.70;35.00;;;;;;11149655;26;20284;-72
2024/04/15 22:41:23;;;;;;;0.40;0.40;;;11.60;35.00;;;;;;11144276;26;20270;-71
2024/04/15 22:46:28;;;;;;;1.17;0.40;;;11.50;35.50;;;;;;11142510;26;21509;-71
2024/04/15 22:51:36;;;;;;;0.80;0.50;;;11.50;35.40;;;;;;11144335;26;20256;-71
2024/04/15 22:56:41;;;;;;;0.87;0.40;;;11.40;35.20;;;;;;11140421;26;20309;-71
2024/04/15 23:01:46;;;;;;;0.40;0.40;;;11.40;35.70;;;;;;11151962;26;20305;-71
2024/04/15 23:06:54;;;;;;;0.50;0.50;;;11.30;35.90;;;;;;11152098;26;21529;-71
2024/04/15 23:11:59;;;;;;;1.07;0.40;;;11.20;35.30;;;;;;11151408;26;20372;-71
2024/04/15 23:17:04;;;;;;;0.40;0.40;;;11.20;35.90;;;;;;11151733;26;20301;-71
2024/04/15 23:22:12;;;;;;;0.50;0.50;;;11.30;35.60;;;;;;11152715;26;20402;-71
2024/04/15 23:27:17;;;;;;;1.47;0.50;;;11.30;35.00;;;;;;11143399;26;20305;-71
2024/04/15 23:32:22;;;;;;;0.80;0.43;;;11.00;34.70;;;;;;11144756;26;20333;-71
2024/04/15 23:37:30;;;;;;;0.60;0.50;;;11.10;34.80;;;;;;11157188;26;20791;-71
2024/04/15 23:42:35;;;;;;;0.67;0.40;;;11.00;34.50;;;;;;11142274;26;20318;-71
2024/04/15 23:47:40;;;;;;;0.53;0.50;;;10.90;34.60;;;;;;11154243;26;20259;-71
2024/04/15 23:52:47;;;;;;;1.17;0.67;;;10.70;34.80;;;;;;11150640;26;20263;-72
2024/04/15 23:57:54;;;;;;;1.60;0.60;;;10.60;34.70;;;;;;11150732;26;20263;-71
